createdAt,value
2018-05-21T00:01:08.134Z,1.20
2018-05-21T00:03:34.907Z,1.50
2018-05-21T00:06:02.173Z,1.77
2018-05-21T00:08:28.945Z,1.57
2018-05-21T00:10:55.721Z,1.43
2018-05-21T00:13:22.492Z,1.83
2018-05-21T00:15:49.265Z,1.50
2018-05-21T00:18:16.029Z,1.13
2018-05-21T00:20:42.816Z,1.80
2018-05-21T00:23:09.599Z,1.50
2018-05-21T00:25:36.411Z,1.30
2018-05-21T00:28:03.157Z,1.93
2018-05-21T00:30:29.953Z,1.20
2018-05-21T00:32:56.680Z,1.50
2018-05-21T00:35:23.424Z,1.60
2018-05-21T00:37:50.217Z,1.33
2018-05-21T00:40:16.958Z,2.50
2018-05-21T00:42:43.730Z,1.40
2018-05-21T00:45:10.483Z,1.60
2018-05-21T00:47:37.288Z,1.20
2018-05-21T00:50:04.046Z,1.33
2018-05-21T00:52:30.845Z,1.70
2018-05-21T00:55:03.323Z,1.53
2018-05-21T00:57:30.110Z,1.37
2018-05-21T00:59:56.860Z,1.70
2018-05-21T01:02:23.623Z,2.00
2018-05-21T01:04:50.389Z,1.70
2018-05-21T01:07:17.177Z,1.30
2018-05-21T01:09:43.921Z,1.50
2018-05-21T01:12:10.693Z,1.40
2018-05-21T01:14:37.506Z,1.30
2018-05-21T01:17:04.289Z,1.80
2018-05-21T01:19:31.043Z,2.50
2018-05-21T01:21:57.821Z,1.60
2018-05-21T01:24:24.564Z,1.70
2018-05-21T01:26:51.306Z,1.50
2018-05-21T01:29:18.097Z,1.73
2018-05-21T01:31:44.840Z,1.80
2018-05-21T01:34:11.638Z,1.70
2018-05-21T01:36:38.382Z,1.63
2018-05-21T01:39:05.165Z,1.70
2018-05-21T01:41:31.936Z,1.50
2018-05-21T01:43:58.709Z,1.83
2018-05-21T01:46:25.457Z,1.43
2018-05-21T01:48:52.988Z,1.77
2018-05-21T01:51:20.100Z,1.50
2018-05-21T01:53:46.881Z,1.50
2018-05-21T01:56:13.622Z,1.53
2018-05-21T01:58:40.421Z,1.67
2018-05-21T02:01:07.182Z,1.80
2018-05-21T02:03:33.966Z,1.63
2018-05-21T02:06:01.348Z,1.70
2018-05-21T02:08:28.217Z,1.97
2018-05-21T02:10:54.934Z,1.43
2018-05-21T02:13:21.697Z,1.60
2018-05-21T02:15:48.483Z,1.53
2018-05-21T02:18:15.225Z,1.80
2018-05-21T02:20:41.992Z,1.80
2018-05-21T02:23:08.775Z,2.07
2018-05-21T02:25:35.737Z,1.87
2018-05-21T02:28:02.481Z,1.83
2018-05-21T02:30:29.249Z,1.50
2018-05-21T02:32:56.001Z,1.63
2018-05-21T02:35:22.786Z,2.10
2018-05-21T02:37:49.648Z,1.50
2018-05-21T02:40:16.428Z,1.97
2018-05-21T02:42:43.187Z,1.90
2018-05-21T02:45:09.987Z,2.07
2018-05-21T02:47:36.755Z,2.10
2018-05-21T02:50:04.047Z,1.80
2018-05-21T02:52:31.409Z,1.70
2018-05-21T02:54:58.184Z,1.80
2018-05-21T02:57:24.932Z,1.77
2018-05-21T02:59:51.740Z,2.37
2018-05-21T03:02:18.519Z,2.37
2018-05-21T03:04:45.292Z,1.87
2018-05-21T03:07:12.080Z,1.63
2018-05-21T03:09:38.834Z,1.87
2018-05-21T03:12:05.928Z,2.20
2018-05-21T03:14:32.720Z,1.90
2018-05-21T03:16:59.536Z,2.00
2018-05-21T03:19:26.783Z,1.87
2018-05-21T03:21:53.583Z,2.97
2018-05-21T03:24:20.340Z,1.60
2018-05-21T03:26:47.133Z,1.97
2018-05-21T03:29:13.888Z,2.20
2018-05-21T03:31:40.692Z,2.07
2018-05-21T03:34:07.428Z,1.90
2018-05-21T03:36:34.201Z,2.07
2018-05-21T03:39:00.976Z,2.13
2018-05-21T03:41:27.754Z,1.87
2018-05-21T03:43:54.499Z,1.90
2018-05-21T03:46:21.301Z,1.70
2018-05-21T03:48:48.055Z,2.10
2018-05-21T03:51:14.836Z,2.03
2018-05-21T03:53:41.656Z,1.80
2018-05-21T03:56:08.695Z,2.20
2018-05-21T03:58:41.162Z,2.00
2018-05-21T04:01:13.673Z,2.03
2018-05-21T04:03:46.253Z,2.00
2018-05-21T04:06:13.013Z,2.23
2018-05-21T04:08:39.807Z,2.00
2018-05-21T04:11:06.549Z,3.00
2018-05-21T04:13:33.330Z,2.27
2018-05-21T04:16:00.069Z,2.10
2018-05-21T04:18:26.842Z,1.57
2018-05-21T04:20:53.605Z,2.63
2018-05-21T04:23:20.397Z,2.00
2018-05-21T04:25:47.353Z,2.03
2018-05-21T04:28:14.122Z,2.00
2018-05-21T04:30:40.888Z,2.37
2018-05-21T04:33:07.633Z,2.50
2018-05-21T04:35:34.445Z,2.73
2018-05-21T04:38:01.207Z,2.37
2018-05-21T04:40:28.005Z,2.70
2018-05-21T04:42:54.744Z,2.17
2018-05-21T04:45:22.183Z,2.83
2018-05-21T04:47:48.962Z,2.40
2018-05-21T04:50:15.760Z,2.43
2018-05-21T04:52:42.509Z,2.40
2018-05-21T04:55:10.002Z,2.77
2018-05-21T04:57:37.095Z,2.60
2018-05-21T05:00:03.862Z,2.93
2018-05-21T05:02:30.690Z,2.83
2018-05-21T05:04:57.743Z,3.37
2018-05-21T05:07:24.523Z,3.00
2018-05-21T05:09:51.298Z,3.20
2018-05-21T05:12:18.065Z,2.87
2018-05-21T05:14:44.879Z,2.87
2018-05-21T05:17:11.631Z,2.40
2018-05-21T05:19:38.439Z,3.37
2018-05-21T05:22:05.189Z,2.43
2018-05-21T05:24:31.960Z,2.70
2018-05-21T05:26:58.751Z,3.33
2018-05-21T05:29:25.549Z,2.50
2018-05-21T05:31:53.079Z,2.80
2018-05-21T05:34:20.376Z,2.73
2018-05-21T05:36:47.155Z,2.60
2018-05-21T05:39:13.920Z,2.57
2018-05-21T05:41:40.693Z,2.63
2018-05-21T05:44:07.436Z,2.67
2018-05-21T05:46:34.820Z,2.90
2018-05-21T05:49:01.575Z,1.90
2018-05-21T05:51:28.328Z,3.27
2018-05-21T05:53:55.069Z,3.10
2018-05-21T05:56:21.859Z,2.70
2018-05-21T05:58:48.616Z,3.20
2018-05-21T06:01:15.384Z,2.70
2018-05-21T06:03:42.123Z,2.00
2018-05-21T06:06:09.600Z,2.73
2018-05-21T06:08:36.363Z,2.30
2018-05-21T06:11:03.153Z,2.00
2018-05-21T06:13:29.925Z,2.90
2018-05-21T06:15:56.683Z,2.17
2018-05-21T06:18:24.162Z,2.33
2018-05-21T06:20:50.928Z,2.30
2018-05-21T06:23:17.738Z,2.23
2018-05-21T06:25:44.519Z,2.40
2018-05-21T06:28:11.277Z,2.63
2018-05-21T06:30:38.042Z,2.63
2018-05-21T06:33:04.817Z,2.40
2018-05-21T06:35:31.577Z,2.23
2018-05-21T06:37:58.341Z,2.13
2018-05-21T06:40:25.084Z,2.30
2018-05-21T06:42:51.868Z,2.10
2018-05-21T06:45:18.614Z,2.40
2018-05-21T06:47:45.414Z,2.37
2018-05-21T06:50:12.197Z,2.77
2018-05-21T06:52:38.985Z,3.00
2018-05-21T06:55:05.752Z,2.73
2018-05-21T06:57:32.546Z,2.50
2018-05-21T06:59:59.304Z,2.20
2018-05-21T07:02:26.104Z,2.33
2018-05-21T07:04:52.879Z,2.10
2018-05-21T07:07:19.620Z,2.57
2018-05-21T07:09:46.448Z,1.80
2018-05-21T07:12:13.204Z,1.90
2018-05-21T07:14:39.973Z,2.10
2018-05-21T07:17:06.773Z,1.90
2018-05-21T07:19:33.594Z,2.20
2018-05-21T07:22:00.367Z,2.23
2018-05-21T07:24:27.208Z,2.10
2018-05-21T07:26:53.950Z,2.20
2018-05-21T07:29:20.709Z,2.57
2018-05-21T07:31:47.484Z,2.30
2018-05-21T07:34:14.276Z,2.30
2018-05-21T07:36:41.029Z,2.23
2018-05-21T07:39:08.557Z,2.40
2018-05-21T07:41:35.299Z,2.60
2018-05-21T07:44:02.128Z,2.80
2018-05-21T07:46:28.887Z,3.17
2018-05-21T07:48:55.633Z,2.50
2018-05-21T07:51:22.439Z,2.60
2018-05-21T07:53:49.742Z,1.90
2018-05-21T07:56:16.521Z,1.80
2018-05-21T07:58:43.284Z,1.73
2018-05-21T08:01:10.384Z,2.10
2018-05-21T08:03:37.285Z,2.27
2018-05-21T08:06:04.079Z,2.00
2018-05-21T08:08:30.819Z,1.57
2018-05-21T08:10:57.616Z,1.50
2018-05-21T08:13:24.403Z,1.87
2018-05-21T08:15:51.189Z,1.73
2018-05-21T08:18:17.937Z,2.20
2018-05-21T08:20:44.704Z,1.80
2018-05-21T08:23:11.468Z,1.60
2018-05-21T08:25:38.265Z,2.10
2018-05-21T08:28:05.045Z,2.50
2018-05-21T08:30:31.885Z,2.10
2018-05-21T08:32:58.625Z,1.93
2018-05-21T08:35:25.364Z,2.00
2018-05-21T08:37:52.156Z,2.00
2018-05-21T08:40:18.893Z,1.87
2018-05-21T08:42:45.710Z,1.50
2018-05-21T08:45:12.493Z,2.00
2018-05-21T08:47:39.267Z,2.10
2018-05-21T08:50:06.010Z,2.10
2018-05-21T08:52:32.833Z,2.77
2018-05-21T08:54:59.592Z,2.00
2018-05-21T08:57:26.389Z,2.77
2018-05-21T08:59:53.141Z,2.20
2018-05-21T09:02:20.534Z,3.30
2018-05-21T09:04:47.377Z,3.03
2018-05-21T09:07:14.106Z,2.60
2018-05-21T09:09:41.053Z,3.00
2018-05-21T09:12:08.941Z,2.27
2018-05-21T09:14:35.728Z,2.80
2018-05-21T09:17:02.531Z,2.60
2018-05-21T09:19:29.285Z,2.60
2018-05-21T09:21:56.092Z,2.97
2018-05-21T09:24:22.861Z,2.57
2018-05-21T09:26:49.634Z,2.87
2018-05-21T09:29:16.440Z,2.70
2018-05-21T09:31:43.205Z,2.50
2018-05-21T09:34:09.991Z,2.20
2018-05-21T09:36:36.751Z,2.67
2018-05-21T09:39:03.583Z,2.63
2018-05-21T09:41:30.352Z,3.00
2018-05-21T09:43:57.129Z,2.53
2018-05-21T09:46:23.901Z,3.00
2018-05-21T09:48:50.699Z,2.83
2018-05-21T09:51:17.449Z,3.20
2018-05-21T09:53:44.290Z,2.97
2018-05-21T09:56:11.069Z,3.17
2018-05-21T09:58:37.870Z,3.17
2018-05-21T10:01:05.317Z,3.00
2018-05-21T10:03:32.116Z,3.03
2018-05-21T10:05:59.143Z,3.87
2018-05-21T10:08:25.963Z,2.37
2018-05-21T10:10:52.716Z,2.53
2018-05-21T10:13:20.187Z,2.60
2018-05-21T10:15:47.360Z,2.10
2018-05-21T10:18:14.136Z,2.33
2018-05-21T10:20:40.953Z,2.30
2018-05-21T10:23:07.732Z,1.80
2018-05-21T10:25:34.523Z,2.10
2018-05-21T10:28:01.282Z,2.77
2018-05-21T10:30:28.061Z,3.10
2018-05-21T10:32:54.844Z,2.63
2018-05-21T10:35:21.624Z,3.07
2018-05-21T10:37:48.677Z,3.30
2018-05-21T10:40:15.466Z,2.73
2018-05-21T10:42:42.311Z,3.13
2018-05-21T10:45:09.033Z,2.97
2018-05-21T10:47:35.782Z,3.20
2018-05-21T10:50:02.579Z,3.53
2018-05-21T10:52:29.348Z,3.67
2018-05-21T10:54:56.161Z,4.00
2018-05-21T10:57:23.542Z,3.30
2018-05-21T10:59:50.295Z,3.50
2018-05-21T11:02:17.093Z,2.87
2018-05-21T11:04:43.946Z,2.80
2018-05-21T11:07:10.700Z,3.00
2018-05-21T11:09:37.454Z,3.03
2018-05-21T11:12:05.309Z,3.60
2018-05-21T11:14:32.080Z,2.90
2018-05-21T11:16:58.852Z,3.27
2018-05-21T11:19:25.629Z,3.20
2018-05-21T11:21:52.451Z,3.47
2018-05-21T11:24:19.227Z,2.93
2018-05-21T11:26:46.121Z,2.87
2018-05-21T11:29:12.927Z,2.70
2018-05-21T11:31:39.712Z,3.13
2018-05-21T11:34:06.469Z,2.87
2018-05-21T11:36:33.273Z,3.70
2018-05-21T11:39:00.049Z,3.50
2018-05-21T11:41:26.848Z,4.47
2018-05-21T11:43:53.590Z,3.43
2018-05-21T11:46:20.406Z,3.23
2018-05-21T11:48:47.165Z,3.10
2018-05-21T11:51:13.937Z,2.90
2018-05-21T11:53:40.713Z,2.80
2018-05-21T11:56:07.445Z,3.63
2018-05-21T11:58:34.248Z,3.53
2018-05-21T12:01:01.907Z,3.23
2018-05-21T12:03:28.676Z,3.07
2018-05-21T12:05:55.444Z,3.47
2018-05-21T12:08:22.242Z,3.77
2018-05-21T12:10:49.038Z,4.07
2018-05-21T12:13:15.856Z,3.30
2018-05-21T12:15:42.615Z,3.20
2018-05-21T12:18:09.430Z,3.23
2018-05-21T12:20:36.182Z,3.47
2018-05-21T12:23:02.988Z,3.20
2018-05-21T12:25:29.756Z,3.80
2018-05-21T12:27:56.535Z,3.57
2018-05-21T12:30:23.305Z,3.33
2018-05-21T12:32:50.222Z,3.00
2018-05-21T12:35:16.991Z,3.93
2018-05-21T12:37:43.756Z,3.40
2018-05-21T12:40:10.538Z,4.67
2018-05-21T12:42:37.282Z,3.00
2018-05-21T12:45:04.817Z,3.50
2018-05-21T12:47:31.607Z,3.00
2018-05-21T12:49:58.387Z,3.57
2018-05-21T12:52:25.156Z,3.10
2018-05-21T12:54:51.984Z,3.03
2018-05-21T12:57:18.724Z,3.30
2018-05-21T12:59:45.509Z,2.80
2018-05-21T13:02:12.250Z,3.30
2018-05-21T13:04:39.023Z,3.20
2018-05-21T13:07:05.769Z,2.60
2018-05-21T13:09:32.592Z,2.77
2018-05-21T13:11:59.365Z,3.03
2018-05-21T13:14:26.149Z,2.97
2018-05-21T13:16:52.919Z,3.10
2018-05-21T13:19:19.700Z,3.07
2018-05-21T13:21:46.470Z,2.70
2018-05-21T13:24:13.318Z,2.93
2018-05-21T13:26:40.081Z,3.30
2018-05-21T13:29:06.830Z,2.50
2018-05-21T13:31:33.603Z,2.90
2018-05-21T13:34:00.349Z,2.30
2018-05-21T13:36:27.117Z,2.67
2018-05-21T13:38:53.860Z,2.17
2018-05-21T13:41:20.697Z,2.23
2018-05-21T13:43:47.467Z,2.50
2018-05-21T13:46:14.256Z,2.37
2018-05-21T13:48:41.043Z,2.40
2018-05-21T13:51:07.839Z,2.40
2018-05-21T13:53:34.592Z,2.17
2018-05-21T13:56:01.372Z,2.30
2018-05-21T13:58:28.724Z,2.60
2018-05-21T14:00:55.519Z,2.13
2018-05-21T14:03:22.300Z,2.60
2018-05-21T14:05:49.109Z,2.27
2018-05-21T14:08:15.890Z,2.63
2018-05-21T14:10:42.696Z,2.50
2018-05-21T14:13:09.477Z,2.33
2018-05-21T14:15:36.331Z,2.13
2018-05-21T14:18:03.384Z,2.07
2018-05-21T14:20:30.168Z,2.30
2018-05-21T14:22:56.969Z,2.33
2018-05-21T14:25:23.879Z,2.60
2018-05-21T14:27:50.670Z,2.40
2018-05-21T14:30:17.421Z,2.67
2018-05-21T14:32:44.199Z,2.40
2018-05-21T14:35:10.950Z,2.10
2018-05-21T14:37:37.710Z,2.20
2018-05-21T14:40:04.557Z,2.53
2018-05-21T14:42:31.381Z,2.30
2018-05-21T14:44:58.340Z,2.57
2018-05-21T14:47:25.136Z,2.40
2018-05-21T14:49:52.675Z,2.40
2018-05-21T14:52:19.464Z,2.03
2018-05-21T14:54:46.218Z,2.43
2018-05-21T14:57:13.168Z,1.90
2018-05-21T14:59:40.217Z,2.07
2018-05-21T15:02:07.105Z,2.20
2018-05-21T15:04:33.877Z,1.80
2018-05-21T15:07:00.677Z,2.50
2018-05-21T15:09:28.069Z,2.27
2018-05-21T15:11:54.868Z,2.30
2018-05-21T15:14:21.636Z,2.23
2018-05-21T15:16:48.854Z,1.77
2018-05-21T15:19:15.637Z,1.97
2018-05-21T15:21:43.037Z,2.20
2018-05-21T15:24:09.861Z,2.60
2018-05-21T15:26:37.722Z,2.60
2018-05-21T15:29:04.507Z,1.87
2018-05-21T15:31:31.272Z,1.90
2018-05-21T15:33:58.815Z,1.90
2018-05-21T15:36:25.589Z,2.10
2018-05-21T15:38:52.383Z,1.97
2018-05-21T15:41:19.154Z,2.17
2018-05-21T15:43:45.957Z,2.23
2018-05-21T15:46:12.723Z,2.40
2018-05-21T15:48:39.587Z,2.10
2018-05-21T15:51:06.318Z,1.93
2018-05-21T15:53:33.516Z,2.00
2018-05-21T15:56:00.341Z,1.90
2018-05-21T15:58:27.086Z,2.10
2018-05-21T16:00:53.892Z,2.17
2018-05-21T16:03:21.451Z,1.90
2018-05-21T16:05:48.254Z,2.67
2018-05-21T16:08:15.004Z,2.07
2018-05-21T16:10:41.816Z,2.20
2018-05-21T16:13:08.582Z,1.83
2018-05-21T16:15:35.361Z,1.60
2018-05-21T16:18:02.124Z,2.00
2018-05-21T16:20:28.912Z,1.80
2018-05-21T16:22:55.666Z,2.10
2018-05-21T16:25:22.432Z,1.97
2018-05-21T16:27:49.165Z,1.93
2018-05-21T16:30:15.967Z,1.90
2018-05-21T16:32:42.736Z,2.00
2018-05-21T16:35:09.530Z,1.90
2018-05-21T16:37:36.266Z,1.70
2018-05-21T16:40:03.054Z,1.90
2018-05-21T16:42:29.848Z,1.93
2018-05-21T16:44:56.598Z,1.63
2018-05-21T16:47:23.386Z,2.20
2018-05-21T16:49:50.142Z,2.30
2018-05-21T16:52:16.951Z,2.00
2018-05-21T16:54:43.688Z,1.97
2018-05-21T16:57:10.467Z,2.20
2018-05-21T16:59:37.461Z,1.60
2018-05-21T17:02:04.249Z,2.10
2018-05-21T17:04:31.017Z,2.07
2018-05-21T17:06:57.851Z,2.70
2018-05-21T17:09:24.628Z,1.83
2018-05-21T17:11:51.415Z,1.83
2018-05-21T17:14:18.159Z,2.10
2018-05-21T17:16:44.958Z,2.10
2018-05-21T17:19:11.731Z,2.10
2018-05-21T17:21:38.515Z,1.77
2018-05-21T17:24:05.307Z,2.00
2018-05-21T17:26:32.076Z,2.13
2018-05-21T17:28:58.906Z,1.70
2018-05-21T17:31:26.296Z,1.73
2018-05-21T17:33:53.075Z,1.80
2018-05-21T17:36:20.513Z,2.50
2018-05-21T17:38:47.304Z,1.80
2018-05-21T17:41:14.084Z,1.80
2018-05-21T17:43:40.859Z,2.00
2018-05-21T17:46:07.635Z,1.73
2018-05-21T17:48:34.426Z,2.20
2018-05-21T17:51:01.469Z,2.17
2018-05-21T17:53:28.266Z,2.93
2018-05-21T17:55:55.017Z,2.00
2018-05-21T17:58:21.802Z,2.10
2018-05-21T18:00:48.585Z,1.77
2018-05-21T18:03:16.012Z,2.37
2018-05-21T18:05:42.760Z,2.00
2018-05-21T18:08:10.285Z,2.00
2018-05-21T18:10:37.058Z,2.20
2018-05-21T18:13:04.019Z,1.80
2018-05-21T18:15:30.788Z,2.00
2018-05-21T18:17:58.308Z,1.80
2018-05-21T18:20:25.487Z,2.00
2018-05-21T18:22:52.305Z,2.20
2018-05-21T18:25:19.769Z,2.00
2018-05-21T18:27:46.763Z,2.20
2018-05-21T18:30:13.634Z,2.20
2018-05-21T18:32:41.310Z,2.80
2018-05-21T18:35:08.920Z,2.40
2018-05-21T18:37:35.662Z,1.93
2018-05-21T18:40:02.491Z,2.70
2018-05-21T18:42:29.630Z,2.50
2018-05-21T18:44:56.398Z,1.80
2018-05-21T18:47:23.481Z,2.03
2018-05-21T18:49:50.254Z,2.50
2018-05-21T18:52:17.496Z,2.40
2018-05-21T18:54:44.305Z,2.23
2018-05-21T18:57:11.063Z,1.83
2018-05-21T18:59:38.131Z,2.33
2018-05-21T19:02:04.932Z,2.00
2018-05-21T19:04:31.933Z,2.80
2018-05-21T19:06:59.299Z,2.20
2018-05-21T19:09:26.211Z,2.93
2018-05-21T19:11:53.398Z,2.10
2018-05-21T19:14:20.191Z,2.50
2018-05-21T19:16:47.355Z,2.50
2018-05-21T19:19:14.560Z,2.27
2018-05-21T19:21:41.372Z,2.47
2018-05-21T19:24:08.175Z,2.27
2018-05-21T19:26:34.957Z,2.40
2018-05-21T19:29:02.464Z,2.27
2018-05-21T19:31:29.516Z,2.60
2018-05-21T19:33:56.577Z,2.63
2018-05-21T19:36:24.526Z,2.30
2018-05-21T19:38:51.600Z,2.43
2018-05-21T19:41:18.962Z,2.67
2018-05-21T19:43:46.027Z,2.37
2018-05-21T19:46:14.303Z,3.30
2018-05-21T19:48:41.362Z,2.50
2018-05-21T19:51:08.710Z,2.50
2018-05-21T19:53:35.759Z,3.30
2018-05-21T19:56:02.521Z,2.50
2018-05-21T19:58:30.175Z,2.37
2018-05-21T20:00:57.230Z,2.50
2018-05-21T20:03:25.513Z,2.70
2018-05-21T20:05:52.868Z,2.13
2018-05-21T20:08:20.230Z,2.60
2018-05-21T20:10:47.040Z,3.50
2018-05-21T20:13:14.334Z,3.10
2018-05-21T20:15:41.391Z,2.10
2018-05-21T20:18:08.443Z,2.97
2018-05-21T20:20:42.561Z,2.57
2018-05-21T20:23:09.412Z,2.93
2018-05-21T20:25:36.662Z,2.70
2018-05-21T20:28:04.024Z,2.37
2018-05-21T20:30:31.221Z,2.50
2018-05-21T20:32:58.742Z,2.60
2018-05-21T20:35:25.633Z,2.70
2018-05-21T20:37:52.424Z,3.07
2018-05-21T20:40:19.189Z,2.10
2018-05-21T20:42:46.559Z,2.20
2018-05-21T20:45:13.410Z,2.30
2018-05-21T20:47:40.157Z,3.17
2018-05-21T20:50:06.916Z,2.70
2018-05-21T20:52:33.693Z,2.73
2018-05-21T20:55:00.481Z,3.83
2018-05-21T20:57:27.233Z,2.70
2018-05-21T20:59:54.041Z,2.90
2018-05-21T21:02:20.784Z,2.73
2018-05-21T21:04:47.568Z,2.80
2018-05-21T21:07:14.313Z,3.37
2018-05-21T21:09:41.120Z,2.90
2018-05-21T21:12:07.872Z,3.77
2018-05-21T21:14:34.660Z,3.47
2018-05-21T21:17:01.393Z,3.60
2018-05-21T21:19:28.188Z,3.00
2018-05-21T21:21:54.944Z,3.17
2018-05-21T21:24:21.731Z,2.57
2018-05-21T21:26:48.516Z,3.50
2018-05-21T21:29:15.291Z,3.30
2018-05-21T21:31:42.063Z,3.13
2018-05-21T21:34:08.859Z,3.30
2018-05-21T21:36:35.609Z,3.23
2018-05-21T21:39:02.392Z,3.37
2018-05-21T21:41:29.306Z,4.13
2018-05-21T21:43:56.040Z,3.43
2018-05-21T21:46:22.837Z,2.93
2018-05-21T21:48:49.599Z,3.60
2018-05-21T21:51:16.361Z,4.33
2018-05-21T21:53:43.108Z,4.10
2018-05-21T21:56:09.893Z,3.90
2018-05-21T21:58:36.652Z,4.90
2018-05-21T22:01:03.429Z,5.23
2018-05-21T22:03:30.173Z,4.80
2018-05-21T22:05:56.955Z,4.30
2018-05-21T22:08:23.720Z,3.93
2018-05-21T22:10:50.501Z,4.83
2018-05-21T22:13:17.232Z,4.53
2018-05-21T22:15:44.001Z,4.47
2018-05-21T22:18:10.752Z,3.20
2018-05-21T22:20:37.540Z,4.80
2018-05-21T22:23:04.296Z,3.80
2018-05-21T22:25:31.055Z,4.90
2018-05-21T22:27:57.821Z,4.20
2018-05-21T22:30:24.570Z,4.77
2018-05-21T22:32:51.363Z,5.50
2018-05-21T22:35:18.108Z,6.10
2018-05-21T22:37:44.870Z,5.47
2018-05-21T22:40:12.086Z,5.20
2018-05-21T22:42:39.774Z,5.80
2018-05-21T22:45:06.549Z,5.17
2018-05-21T22:47:33.325Z,4.47
2018-05-21T22:50:00.435Z,3.87
2018-05-21T22:52:27.881Z,5.03
2018-05-21T22:54:55.224Z,4.33
2018-05-21T22:57:21.992Z,4.97
2018-05-21T22:59:48.754Z,4.10
2018-05-21T23:02:15.525Z,4.63
2018-05-21T23:04:42.266Z,5.10
2018-05-21T23:07:09.044Z,4.93
2018-05-21T23:09:35.781Z,4.23
2018-05-21T23:12:02.576Z,5.40
2018-05-21T23:14:29.362Z,5.17
2018-05-21T23:16:56.100Z,6.20
2018-05-21T23:19:22.898Z,6.13
2018-05-21T23:21:49.658Z,6.10
2018-05-21T23:24:17.152Z,4.93
2018-05-21T23:26:43.914Z,4.93
2018-05-21T23:29:10.698Z,5.30
2018-05-21T23:31:37.452Z,5.30
2018-05-21T23:34:04.266Z,4.73
2018-05-21T23:36:31.029Z,5.67
2018-05-21T23:38:58.432Z,4.67
2018-05-21T23:41:25.165Z,6.03
2018-05-21T23:43:51.964Z,4.70
2018-05-21T23:46:18.739Z,3.93
2018-05-21T23:48:45.537Z,4.60
2018-05-21T23:51:12.300Z,5.83
2018-05-21T23:53:39.061Z,5.73
2018-05-21T23:56:05.809Z,4.73
2018-05-21T23:58:32.622Z,5.00
